Time;durP1;ratioP1;P1;durP2;ratioP2;P2;SDS_P1;SDS_P2;PMS_P1;PMS_P2;Temp;Humidity;BMP_temperature;BMP_pressure;BME280_temperature;BME280_humidity;BME280_pressure;Samples;Min_cycle;Max_cycle;Signal;HPM_P1;HPM_P2
2023/01/18 00:00:00;;;;;;;13.30;4.20;;;1.20;99.90;;;;;;5067615;28;20024;-43
2023/01/18 00:02:25;;;;;;;9.00;4.10;;;1.20;99.90;;;;;;5064699;28;20025;-36
2023/01/18 00:04:51;;;;;;;7.47;4.03;;;1.30;99.90;;;;;;5066376;28;20031;-39
2023/01/18 00:07:16;;;;;;;14.98;4.00;;;1.30;99.90;;;;;;5070402;28;20028;-42
2023/01/18 00:09:42;;;;;;;6.82;3.92;;;1.30;99.90;;;;;;5067142;28;20481;-41
2023/01/18 00:12:08;;;;;;;8.68;3.38;;;1.40;99.90;;;;;;5064726;28;20033;-39
2023/01/18 00:14:36;;;;;;;6.35;3.78;;;1.40;99.90;;;;;;5068526;28;20033;-37
2023/01/18 00:17:02;;;;;;;9.75;3.17;;;1.40;99.90;;;;;;5069708;28;20052;-38
2023/01/18 00:19:27;;;;;;;5.13;3.30;;;1.40;99.90;;;;;;5074370;28;20044;-33
2023/01/18 00:21:54;;;;;;;6.22;3.10;;;1.50;99.90;;;;;;5067149;28;20031;-35
2023/01/18 00:24:21;;;;;;;13.07;3.90;;;1.50;99.90;;;;;;5065802;28;20497;-37
2023/01/18 00:26:47;;;;;;;8.00;3.47;;;1.40;99.90;;;;;;5070038;28;20025;-34
2023/01/18 00:29:13;;;;;;;3.92;2.88;;;1.50;99.90;;;;;;5067319;28;20032;-38
2023/01/18 00:31:39;;;;;;;6.05;3.22;;;1.40;99.90;;;;;;5069338;28;20469;-37
2023/01/18 00:34:05;;;;;;;8.45;3.92;;;1.40;99.90;;;;;;5063401;28;20033;-34
2023/01/18 00:36:32;;;;;;;5.63;3.15;;;1.40;99.90;;;;;;5072090;28;20021;-41
2023/01/18 00:38:58;;;;;;;7.65;3.22;;;1.40;99.90;;;;;;5071876;28;20028;-41
2023/01/18 00:41:23;;;;;;;7.22;2.95;;;1.30;99.90;;;;;;5073709;28;20025;-43
2023/01/18 00:43:50;;;;;;;6.57;3.53;;;1.30;99.90;;;;;;5072899;28;20027;-43
2023/01/18 00:46:21;;;;;;;6.50;3.45;;;1.30;99.90;;;;;;5070825;28;20029;-38
2023/01/18 00:48:47;;;;;;;6.70;3.17;;;1.20;99.90;;;;;;5070261;28;20029;-40
2023/01/18 00:51:19;;;;;;;7.95;3.67;;;1.20;99.90;;;;;;5071995;28;20546;-37
2023/01/18 00:53:45;;;;;;;4.25;2.83;;;1.20;99.90;;;;;;5073479;28;20583;-36
2023/01/18 00:56:13;;;;;;;6.63;2.97;;;1.20;99.90;;;;;;5073841;28;20052;-43
2023/01/18 00:58:39;;;;;;;;;;;1.10;99.90;;;;;;5074077;28;20020;-46
2023/01/18 01:01:08;;;;;;;7.70;3.97;;;1.10;99.90;;;;;;5072598;28;19904;-42
2023/01/18 01:06:43;;;;;;;13.27;3.85;;;1.00;99.90;;;;;;5072353;28;20043;-42
2023/01/18 01:09:20;;;;;;;5.03;3.80;;;1.00;99.90;;;;;;5071943;28;20028;-39
2023/01/18 01:28:24;;;;;;;5.25;2.85;;;0.80;99.90;;;;;;5068226;28;20082;-36
2023/01/18 01:30:50;;;;;;;5.65;3.35;;;0.70;99.90;;;;;;5073181;28;20077;-37
2023/01/18 01:33:17;;;;;;;8.90;3.08;;;0.80;99.90;;;;;;5073705;28;20469;-37
2023/01/18 01:35:43;;;;;;;10.90;2.97;;;0.80;99.90;;;;;;5068951;28;20444;-35
2023/01/18 01:38:08;;;;;;;5.78;2.95;;;0.80;99.90;;;;;;5071612;28;20512;-37
2023/01/18 01:40:34;;;;;;;4.75;3.13;;;0.80;99.90;;;;;;5072787;28;20021;-40
2023/01/18 01:43:00;;;;;;;11.13;3.50;;;0.80;99.90;;;;;;5072140;28;20028;-37
2023/01/18 01:45:30;;;;;;;7.22;3.60;;;0.80;99.90;;;;;;5072778;28;20032;-38
2023/01/18 01:47:56;;;;;;;6.75;3.05;;;0.80;99.90;;;;;;5072011;28;20127;-44
2023/01/18 01:50:34;;;;;;;10.45;3.35;;;0.80;99.90;;;;;;5071617;28;20039;-42
2023/01/18 01:53:01;;;;;;;4.25;2.63;;;0.80;99.90;;;;;;5072788;28;20020;-42
2023/01/18 01:55:32;;;;;;;5.63;3.20;;;0.90;99.90;;;;;;5072846;28;20024;-44
2023/01/18 01:58:00;;;;;;;5.13;3.22;;;0.90;99.90;;;;;;5072112;28;20481;-41
2023/01/18 02:00:26;;;;;;;5.38;2.72;;;0.90;99.90;;;;;;5073078;28;20488;-44
2023/01/18 02:03:22;;;;;;;10.25;4.00;;;0.90;99.90;;;;;;5072286;28;20021;-41
2023/01/18 02:05:52;;;;;;;3.88;2.90;;;0.90;99.90;;;;;;5054579;28;20043;-41
2023/01/18 02:08:23;;;;;;;6.22;3.10;;;0.90;99.90;;;;;;5072739;28;20024;-44
2023/01/18 02:10:50;;;;;;;6.85;2.70;;;0.90;99.90;;;;;;5072997;28;20028;-41
2023/01/18 02:13:18;;;;;;;5.20;3.00;;;0.90;99.90;;;;;;5071859;28;20429;-42
2023/01/18 02:16:06;;;;;;;4.33;2.77;;;0.90;99.90;;;;;;5071896;28;20478;-44
2023/01/18 02:19:27;;;;;;;5.03;2.70;;;0.90;99.90;;;;;;5072580;28;20483;-44
2023/01/18 02:22:21;;;;;;;3.22;2.67;;;0.90;99.90;;;;;;4971477;28;20097;-44
2023/01/18 02:25:08;;;;;;;3.45;2.13;;;0.90;99.90;;;;;;5066538;28;20037;-43
2023/01/18 02:27:47;;;;;;;6.57;2.53;;;0.90;99.90;;;;;;5071804;28;20033;-40
2023/01/18 02:30:29;;;;;;;3.13;2.25;;;0.90;99.90;;;;;;5071894;28;20024;-43
2023/01/18 02:33:09;;;;;;;5.80;2.88;;;0.90;99.90;;;;;;5071095;28;20473;-43
2023/01/18 02:36:01;;;;;;;8.07;2.25;;;0.80;99.90;;;;;;5070035;28;20086;-41
2023/01/18 02:38:50;;;;;;;4.05;2.40;;;0.90;99.90;;;;;;5068017;28;20431;-43
2023/01/18 02:47:14;;;;;;;4.43;2.03;;;0.90;99.90;;;;;;5071033;28;20059;-41
2023/01/18 02:49:41;;;;;;;3.75;2.13;;;0.90;99.90;;;;;;5073434;28;20362;-39
2023/01/18 02:52:27;;;;;;;9.80;2.78;;;0.90;99.90;;;;;;5071513;28;20108;-42
2023/01/18 02:54:53;;;;;;;9.63;2.55;;;0.90;99.90;;;;;;5075718;28;20044;-42
2023/01/18 02:57:19;;;;;;;4.10;2.05;;;0.90;99.90;;;;;;5075395;28;20063;-41
2023/01/18 02:59:50;;;;;;;3.00;1.65;;;0.90;99.90;;;;;;5075628;28;20074;-36
2023/01/18 03:02:19;;;;;;;14.10;2.42;;;1.00;99.90;;;;;;5074649;28;20432;-47
2023/01/18 03:04:55;;;;;;;6.75;2.40;;;1.00;99.90;;;;;;5075848;28;20059;-42
2023/01/18 03:07:34;;;;;;;2.17;1.95;;;1.00;99.90;;;;;;5075678;28;20063;-41
2023/01/18 03:10:05;;;;;;;7.80;2.33;;;1.00;99.90;;;;;;5074327;28;20040;-43
2023/01/18 03:12:48;;;;;;;5.47;2.28;;;1.00;99.90;;;;;;5074992;28;20032;-44
2023/01/18 03:15:19;;;;;;;5.30;2.42;;;1.00;99.90;;;;;;5074806;28;20020;-43
2023/01/18 03:18:02;;;;;;;5.68;2.30;;;1.00;99.90;;;;;;5074809;28;20469;-39
2023/01/18 03:20:33;;;;;;;5.80;2.10;;;1.00;99.90;;;;;;5074886;28;20407;-35
2023/01/18 03:25:56;;;;;;;5.43;2.20;;;1.10;99.90;;;;;;5055645;28;20087;-34
2023/01/18 03:34:03;;;;;;;5.10;1.75;;;1.00;99.90;;;;;;5075395;28;20416;-39
2023/01/18 03:36:33;;;;;;;4.75;2.10;;;1.00;99.90;;;;;;5074164;28;20498;-38
2023/01/18 03:39:09;;;;;;;3.20;1.98;;;1.10;99.90;;;;;;5075210;28;20469;-33
2023/01/18 03:41:40;;;;;;;4.68;2.50;;;1.00;99.90;;;;;;5074733;28;20150;-40
2023/01/18 03:44:12;;;;;;;4.40;2.40;;;1.00;99.90;;;;;;5074952;28;20027;-39
2023/01/18 03:46:39;;;;;;;3.45;2.35;;;1.00;99.90;;;;;;5074886;28;20552;-42
2023/01/18 03:49:06;;;;;;;5.78;2.08;;;1.00;99.90;;;;;;5074140;28;20085;-44
2023/01/18 03:51:54;;;;;;;5.22;2.38;;;1.00;99.90;;;;;;5074298;28;20516;-43
2023/01/18 03:54:30;;;;;;;2.95;2.17;;;1.00;99.90;;;;;;5074181;28;20086;-42
2023/01/18 03:57:14;;;;;;;4.25;2.33;;;1.00;99.90;;;;;;5074448;28;20125;-41
2023/01/18 03:59:39;;;;;;;2.60;2.15;;;1.00;99.90;;;;;;5074132;28;20495;-35
2023/01/18 04:02:06;;;;;;;3.45;2.42;;;1.10;99.90;;;;;;5073467;28;20020;-38
2023/01/18 04:04:32;;;;;;;5.50;3.13;;;1.10;99.90;;;;;;5073399;28;20039;-36
2023/01/18 04:06:58;;;;;;;3.47;2.25;;;1.10;99.90;;;;;;5073118;28;20485;-36
2023/01/18 04:09:25;;;;;;;3.33;2.33;;;1.10;99.90;;;;;;5070675;28;20618;-35
2023/01/18 04:11:51;;;;;;;5.40;2.80;;;1.10;99.90;;;;;;5087130;28;20074;-42
2023/01/18 04:14:16;;;;;;;3.78;2.50;;;1.20;99.90;;;;;;5074362;28;20446;-43
2023/01/18 04:16:42;;;;;;;8.98;2.65;;;1.20;99.90;;;;;;5073335;28;20107;-41
2023/01/18 04:19:08;;;;;;;7.20;3.58;;;1.20;99.90;;;;;;5072373;28;20016;-42
2023/01/18 04:21:34;;;;;;;4.32;2.70;;;1.20;99.90;;;;;;5072632;28;20020;-43
2023/01/18 04:24:00;;;;;;;4.72;2.53;;;1.20;99.90;;;;;;5073262;28;20377;-44
2023/01/18 04:26:26;;;;;;;7.78;3.28;;;1.10;99.90;;;;;;5072276;28;20024;-40
2023/01/18 04:28:51;;;;;;;3.45;2.30;;;1.10;99.90;;;;;;5072962;28;20082;-40
2023/01/18 04:31:17;;;;;;;2.67;2.40;;;1.10;99.90;;;;;;5074145;28;20052;-48
2023/01/18 04:33:43;;;;;;;4.32;2.75;;;1.20;99.90;;;;;;5074332;28;20039;-36
2023/01/18 04:36:08;;;;;;;7.18;3.00;;;1.20;99.90;;;;;;5073037;28;20520;-38
2023/01/18 04:38:34;;;;;;;5.38;2.75;;;1.20;99.90;;;;;;5073139;28;20032;-36
2023/01/18 04:41:04;;;;;;;3.22;2.35;;;1.20;99.90;;;;;;5074078;28;20146;-39
2023/01/18 04:43:30;;;;;;;8.40;2.78;;;1.30;99.90;;;;;;5073701;28;20492;-35
2023/01/18 04:45:56;;;;;;;4.57;2.42;;;1.30;99.90;;;;;;5073444;28;20029;-41
2023/01/18 04:48:22;;;;;;;6.50;2.80;;;1.30;99.90;;;;;;5072467;28;20048;-42
2023/01/18 04:50:48;;;;;;;5.38;2.47;;;1.20;99.90;;;;;;5072593;28;20504;-44
2023/01/18 04:53:15;;;;;;;4.45;2.65;;;1.20;99.90;;;;;;5072159;28;20103;-36
2023/01/18 04:55:41;;;;;;;7.15;3.00;;;1.20;99.90;;;;;;5071635;28;20468;-41
2023/01/18 04:58:06;;;;;;;7.47;1.98;;;1.20;99.90;;;;;;5070916;28;20023;-41
2023/01/18 05:00:38;;;;;;;5.15;2.65;;;1.20;99.90;;;;;;5073047;28;20032;-46
2023/01/18 05:03:06;;;;;;;6.35;2.78;;;1.20;99.90;;;;;;5072078;28;20056;-38
2023/01/18 05:05:31;;;;;;;7.40;2.83;;;1.20;99.90;;;;;;5071792;28;20021;-41
2023/01/18 05:07:57;;;;;;;6.95;3.38;;;1.20;99.90;;;;;;5071451;28;20027;-47
2023/01/18 05:10:23;;;;;;;4.28;2.70;;;1.30;99.90;;;;;;5071305;28;20033;-41
2023/01/18 05:12:48;;;;;;;5.22;2.58;;;1.20;99.90;;;;;;5071021;28;20037;-37
2023/01/18 05:15:14;;;;;;;4.28;2.60;;;1.20;99.90;;;;;;5071882;28;20020;-37
2023/01/18 05:17:40;;;;;;;5.97;3.67;;;1.20;99.90;;;;;;5071258;28;20028;-38
2023/01/18 05:20:07;;;;;;;4.22;2.03;;;1.20;99.90;;;;;;5071916;28;20463;-37
2023/01/18 05:22:33;;;;;;;5.07;2.30;;;1.20;99.90;;;;;;5070183;28;20056;-38
2023/01/18 05:24:59;;;;;;;4.47;2.53;;;1.20;99.90;;;;;;5070750;28;20059;-37
2023/01/18 05:27:25;;;;;;;6.25;3.20;;;1.20;99.90;;;;;;5070991;28;20032;-39
2023/01/18 05:29:50;;;;;;;5.22;2.83;;;1.20;99.90;;;;;;5071044;28;20039;-39
2023/01/18 05:32:16;;;;;;;7.38;2.88;;;1.20;99.90;;;;;;5071424;28;20138;-38
2023/01/18 05:34:42;;;;;;;4.45;2.22;;;1.20;99.90;;;;;;5070545;28;20275;-36
2023/01/18 05:37:09;;;;;;;3.33;2.53;;;1.20;99.90;;;;;;5072629;28;20099;-38
2023/01/18 05:39:34;;;;;;;5.65;2.70;;;1.20;99.90;;;;;;5070584;28;20039;-36
2023/01/18 05:42:00;;;;;;;7.88;3.05;;;1.20;99.90;;;;;;5070389;28;20025;-39
2023/01/18 05:44:26;;;;;;;4.28;2.85;;;1.20;99.90;;;;;;5071643;28;20100;-34
2023/01/18 05:46:52;;;;;;;6.88;2.72;;;1.20;99.90;;;;;;5071278;28;20040;-40
2023/01/18 05:49:18;;;;;;;7.15;2.60;;;1.20;99.90;;;;;;5071396;28;20380;-40
2023/01/18 05:51:44;;;;;;;3.67;2.20;;;1.20;99.90;;;;;;5070026;28;20031;-39
2023/01/18 05:54:10;;;;;;;5.97;2.08;;;1.20;99.90;;;;;;5072971;28;20477;-40
2023/01/18 05:56:36;;;;;;;4.90;2.83;;;1.20;99.90;;;;;;5071407;28;20041;-40
2023/01/18 06:01:49;;;;;;;2.97;1.77;;;1.20;99.90;;;;;;5071746;28;20035;-37
2023/01/18 06:04:15;;;;;;;11.02;3.08;;;1.20;99.90;;;;;;5072741;28;20033;-38
2023/01/18 06:06:40;;;;;;;5.05;2.50;;;1.30;99.90;;;;;;5072653;28;20500;-40
2023/01/18 06:09:06;;;;;;;7.55;2.65;;;1.30;99.90;;;;;;5070838;28;20036;-38
2023/01/18 06:11:32;;;;;;;4.40;2.67;;;1.30;99.90;;;;;;5072893;28;20492;-40
2023/01/18 06:13:57;;;;;;;6.45;2.88;;;1.30;99.90;;;;;;5071836;28;20473;-40
2023/01/18 06:16:23;;;;;;;4.68;2.92;;;1.30;99.90;;;;;;5072600;28;20020;-44
2023/01/18 06:18:49;;;;;;;7.05;2.78;;;1.40;99.90;;;;;;5071649;28;20100;-42
2023/01/18 06:21:14;;;;;;;4.97;2.60;;;1.40;99.90;;;;;;5071439;28;20025;-42
2023/01/18 06:23:40;;;;;;;7.43;3.13;;;1.50;99.90;;;;;;5076198;28;20569;-44
2023/01/18 06:26:06;;;;;;;3.40;2.60;;;1.50;99.90;;;;;;5076562;28;20400;-45
2023/01/18 06:28:31;;;;;;;5.15;2.95;;;1.50;99.90;;;;;;5075617;28;20115;-43
2023/01/18 06:30:57;;;;;;;6.35;3.55;;;1.50;99.90;;;;;;5076549;28;20028;-44
2023/01/18 06:33:23;;;;;;;3.25;2.70;;;1.50;99.90;;;;;;5075757;28;20456;-45
2023/01/18 06:35:49;;;;;;;6.50;3.03;;;1.60;99.90;;;;;;5076251;28;20024;-38
2023/01/18 06:38:14;;;;;;;4.63;2.42;;;1.60;99.90;;;;;;5075414;28;20020;-39
2023/01/18 06:40:40;;;;;;;10.63;3.60;;;1.60;99.90;;;;;;5070970;28;20529;-35
2023/01/18 06:43:07;;;;;;;8.18;3.22;;;1.50;99.90;;;;;;5076346;28;20035;-41
2023/01/18 06:45:33;;;;;;;8.13;2.70;;;1.60;99.90;;;;;;5075209;28;20503;-40
2023/01/18 06:47:59;;;;;;;4.38;2.75;;;1.60;99.90;;;;;;5074407;28;20602;-39
2023/01/18 06:50:25;;;;;;;3.33;2.78;;;1.50;99.90;;;;;;5074273;28;20042;-40
2023/01/18 06:52:50;;;;;;;9.15;3.00;;;1.60;99.90;;;;;;5072469;28;20394;-41
2023/01/18 06:55:18;;;;;;;9.07;2.78;;;1.50;99.90;;;;;;5074561;28;20468;-41
2023/01/18 06:57:44;;;;;;;5.32;3.10;;;1.50;99.90;;;;;;5074166;28;20099;-34
2023/01/18 07:00:11;;;;;;;4.57;2.70;;;1.50;99.90;;;;;;5075762;28;20052;-38
2023/01/18 07:02:36;;;;;;;9.88;2.88;;;1.50;99.90;;;;;;5075531;28;20515;-37
2023/01/18 07:05:03;;;;;;;7.40;2.85;;;1.50;99.90;;;;;;5076098;28;20033;-41
2023/01/18 07:07:29;;;;;;;6.00;3.10;;;1.60;99.90;;;;;;5075028;28;20536;-37
2023/01/18 07:09:55;;;;;;;5.25;2.90;;;1.60;99.90;;;;;;5075649;28;20028;-40
2023/01/18 07:12:21;;;;;;;4.75;3.10;;;1.70;99.90;;;;;;5074884;28;20025;-37
2023/01/18 07:14:50;;;;;;;4.97;2.53;;;1.80;99.90;;;;;;5074326;28;20029;-36
2023/01/18 07:17:15;;;;;;;7.40;2.95;;;1.80;99.90;;;;;;5075473;28;20020;-39
2023/01/18 07:19:41;;;;;;;4.18;2.22;;;1.80;99.90;;;;;;5073671;28;20041;-38
2023/01/18 07:22:06;;;;;;;8.63;2.55;;;1.80;99.90;;;;;;5073808;28;20028;-37
2023/01/18 07:24:32;;;;;;;4.50;2.35;;;1.70;99.90;;;;;;5075599;28;20443;-43
2023/01/18 07:27:02;;;;;;;4.13;2.63;;;1.80;99.90;;;;;;5073002;28;20048;-41
2023/01/18 07:29:27;;;;;;;7.38;2.75;;;1.80;99.90;;;;;;5072318;28;20025;-42
2023/01/18 07:31:53;;;;;;;5.53;2.38;;;1.80;99.90;;;;;;5070068;28;20376;-43
2023/01/18 07:34:18;;;;;;;3.38;2.22;;;1.80;99.90;;;;;;5073017;28;20123;-42
2023/01/18 07:36:44;;;;;;;5.30;2.60;;;1.80;99.90;;;;;;5070543;28;20025;-44
2023/01/18 07:39:10;;;;;;;15.45;3.67;;;1.90;99.90;;;;;;5074775;28;20074;-43
2023/01/18 07:41:36;;;;;;;8.18;2.80;;;1.80;99.90;;;;;;5072621;28;20031;-43
2023/01/18 07:44:02;;;;;;;6.10;2.63;;;1.80;99.90;;;;;;5073604;28;20511;-47
2023/01/18 07:46:28;;;;;;;7.22;3.28;;;1.80;99.90;;;;;;5070890;28;20029;-43
2023/01/18 07:48:53;;;;;;;4.70;2.92;;;1.90;99.90;;;;;;5074792;28;20288;-42
2023/01/18 07:51:23;;;;;;;9.02;3.20;;;1.90;99.90;;;;;;5074256;28;20033;-42
2023/01/18 07:53:52;;;;;;;5.55;2.70;;;1.90;99.90;;;;;;5069936;28;20025;-46
2023/01/18 07:56:18;;;;;;;3.53;2.33;;;1.90;99.90;;;;;;5070331;28;20024;-44
2023/01/18 07:58:44;;;;;;;6.07;3.42;;;1.90;99.90;;;;;;5074792;28;20025;-44
2023/01/18 08:01:16;;;;;;;7.97;3.17;;;1.80;99.90;;;;;;5070819;28;20081;-39
2023/01/18 08:03:43;;;;;;;6.25;3.03;;;1.90;99.90;;;;;;5074803;28;20027;-39
2023/01/18 08:06:11;;;;;;;7.07;3.25;;;1.90;99.90;;;;;;5071547;28;20032;-41
2023/01/18 08:08:37;;;;;;;8.23;3.58;;;1.90;99.90;;;;;;5069412;28;20120;-40
2023/01/18 08:11:04;;;;;;;4.60;2.85;;;2.00;99.90;;;;;;5070205;28;20090;-39
2023/01/18 08:13:31;;;;;;;18.83;4.10;;;1.90;99.90;;;;;;5063286;28;20496;-39
2023/01/18 08:16:00;;;;;;;8.43;3.15;;;1.90;99.90;;;;;;5073347;28;20020;-38
2023/01/18 08:18:25;;;;;;;4.80;3.47;;;1.90;99.90;;;;;;5072688;28;20051;-41
2023/01/18 08:20:51;;;;;;;8.88;3.60;;;1.90;99.90;;;;;;5073872;28;20025;-38
2023/01/18 08:23:17;;;;;;;6.22;3.65;;;1.90;99.90;;;;;;5067377;28;20169;-41
2023/01/18 08:25:44;;;;;;;9.35;3.25;;;1.90;99.90;;;;;;5069280;28;20039;-37
2023/01/18 08:28:10;;;;;;;4.45;2.97;;;2.00;99.90;;;;;;5073227;28;20024;-38
2023/01/18 08:30:39;;;;;;;9.30;3.65;;;2.10;99.90;;;;;;5066050;28;20564;-40
2023/01/18 08:33:06;;;;;;;7.15;3.08;;;2.10;99.90;;;;;;5061917;28;20039;-41
2023/01/18 08:35:41;;;;;;;7.03;3.20;;;2.20;99.90;;;;;;5068142;28;20025;-36
2023/01/18 08:38:07;;;;;;;12.23;3.70;;;2.30;99.90;;;;;;5069824;28;20495;-39
2023/01/18 08:40:33;;;;;;;6.55;3.75;;;2.40;99.90;;;;;;5074019;28;20115;-39
2023/01/18 08:43:01;;;;;;;6.75;3.80;;;2.50;99.90;;;;;;5068231;28;20354;-40
2023/01/18 08:45:27;;;;;;;13.20;3.72;;;2.50;99.90;;;;;;5069545;28;20119;-38
2023/01/18 08:48:04;;;;;;;4.32;2.95;;;2.50;99.90;;;;;;5070182;28;20123;-38
2023/01/18 08:50:31;;;;;;;6.25;3.45;;;2.50;99.90;;;;;;5069371;28;20028;-36
2023/01/18 08:52:58;;;;;;;7.00;3.70;;;2.50;99.90;;;;;;5073330;28;20039;-36
2023/01/18 08:55:25;;;;;;;6.53;3.25;;;2.50;99.90;;;;;;5072245;28;20020;-39
2023/01/18 08:57:53;;;;;;;4.65;3.03;;;2.50;99.90;;;;;;5071941;28;20024;-42
2023/01/18 09:00:21;;;;;;;10.35;3.58;;;2.50;99.90;;;;;;5065557;28;20020;-37
2023/01/18 09:02:47;;;;;;;;;;;2.50;99.90;;;;;;5065190;28;20020;-35
2023/01/18 09:05:13;;;;;;;7.93;4.30;;;2.50;99.90;;;;;;5064350;28;20292;-38
2023/01/18 09:07:38;;;;;;;8.18;3.63;;;2.60;99.90;;;;;;5069820;28;20028;-37
2023/01/18 09:10:04;;;;;;;12.88;3.75;;;2.60;99.90;;;;;;5063330;28;20025;-40
2023/01/18 09:12:33;;;;;;;7.55;3.97;;;2.60;99.90;;;;;;5063969;28;20028;-40
2023/01/18 09:14:59;;;;;;;6.47;3.63;;;2.60;99.90;;;;;;5065791;28;20028;-42
2023/01/18 09:17:24;;;;;;;4.43;3.42;;;2.60;99.90;;;;;;5063972;28;20043;-40
2023/01/18 09:19:51;;;;;;;6.63;3.92;;;2.60;99.90;;;;;;5066156;28;20070;-42
2023/01/18 09:22:17;;;;;;;6.63;3.45;;;2.70;99.90;;;;;;5065662;28;20032;-40
2023/01/18 09:24:42;;;;;;;11.68;3.40;;;2.70;99.90;;;;;;5063754;28;20033;-39
2023/01/18 09:27:09;;;;;;;13.95;3.60;;;2.70;99.90;;;;;;5064273;28;20016;-39
2023/01/18 09:29:35;;;;;;;9.73;3.83;;;2.80;99.90;;;;;;5062706;28;20107;-41
2023/01/18 09:32:00;;;;;;;10.02;5.00;;;2.80;99.90;;;;;;5073012;28;20103;-41
2023/01/18 09:34:26;;;;;;;7.70;4.30;;;2.70;99.90;;;;;;5070294;28;20067;-37
2023/01/18 09:36:52;;;;;;;6.75;4.10;;;2.80;99.90;;;;;;5064119;28;20086;-41
2023/01/18 09:39:19;;;;;;;10.35;4.05;;;2.90;99.90;;;;;;5068627;28;20017;-37
2023/01/18 09:41:53;;;;;;;12.85;4.22;;;3.00;99.90;;;;;;5068746;28;20016;-39
2023/01/18 09:44:47;;;;;;;6.05;3.95;;;3.00;99.90;;;;;;5069914;28;20585;-38
2023/01/18 09:47:21;;;;;;;7.82;2.80;;;3.00;99.90;;;;;;5064447;28;20044;-40
2023/01/18 09:49:56;;;;;;;8.20;3.97;;;3.00;99.90;;;;;;5060314;28;20028;-41
2023/01/18 09:52:45;;;;;;;6.65;3.60;;;3.00;99.90;;;;;;5066000;28;20050;-35
2023/01/18 09:55:21;;;;;;;15.13;8.52;;;3.00;99.90;;;;;;5069708;28;20036;-38
2023/01/18 09:58:14;;;;;;;14.27;4.20;;;3.00;99.90;;;;;;5070234;28;20025;-37
2023/01/18 10:00:44;;;;;;;7.38;4.28;;;3.10;99.90;;;;;;5069577;28;20028;-41
2023/01/18 10:03:18;;;;;;;8.50;3.78;;;3.10;99.90;;;;;;5070298;28;20036;-37
2023/01/18 10:06:08;;;;;;;6.78;3.55;;;3.10;99.90;;;;;;5069443;28;20024;-37
2023/01/18 10:09:05;;;;;;;7.75;3.55;;;3.20;99.90;;;;;;5069417;28;20477;-38
2023/01/18 10:11:46;;;;;;;6.47;3.40;;;3.20;99.90;;;;;;5065813;28;20028;-35
2023/01/18 10:14:14;;;;;;;10.30;3.72;;;3.30;99.90;;;;;;5071870;28;20101;-37
2023/01/18 10:16:40;;;;;;;7.05;3.53;;;3.30;99.90;;;;;;5067974;28;20761;-36
2023/01/18 10:19:21;;;;;;;9.80;4.43;;;3.30;99.90;;;;;;5063334;28;20017;-38
2023/01/18 10:21:55;;;;;;;10.48;3.80;;;3.40;99.90;;;;;;5056980;28;20495;-36
2023/01/18 10:24:38;;;;;;;8.75;3.78;;;3.40;99.90;;;;;;5068906;28;20430;-38
2023/01/18 10:27:18;;;;;;;7.30;3.15;;;3.40;99.90;;;;;;5063359;28;20068;-40
2023/01/18 10:30:10;;;;;;;9.15;4.03;;;3.50;99.90;;;;;;5068404;28;20200;-37
2023/01/18 10:32:37;;;;;;;7.10;3.65;;;3.50;99.90;;;;;;5070194;28;20098;-40
2023/01/18 10:35:16;;;;;;;6.40;3.13;;;3.60;99.90;;;;;;5067178;28;20120;-39
2023/01/18 10:37:46;;;;;;;5.60;3.13;;;3.60;99.90;;;;;;5061125;28;20028;-36
2023/01/18 10:40:13;;;;;;;5.68;3.28;;;3.60;99.90;;;;;;5064113;28;20028;-38
2023/01/18 10:42:45;;;;;;;11.93;3.63;;;3.60;99.90;;;;;;5063021;28;20541;-36
2023/01/18 10:45:16;;;;;;;6.43;4.03;;;3.70;99.90;;;;;;5060099;28;20473;-39
2023/01/18 10:47:43;;;;;;;11.45;3.63;;;3.80;99.90;;;;;;5064688;28;20048;-38
2023/01/18 10:50:36;;;;;;;10.40;3.72;;;3.80;99.90;;;;;;5065991;28;20029;-41
2023/01/18 10:53:26;;;;;;;8.20;3.85;;;3.80;99.90;;;;;;5054848;28;20512;-43
2023/01/18 10:55:54;;;;;;;7.45;4.03;;;3.90;99.90;;;;;;5062361;28;20048;-45
2023/01/18 10:58:44;;;;;;;5.80;3.28;;;4.00;99.90;;;;;;5065502;28;20033;-44
2023/01/18 11:01:22;;;;;;;11.10;4.15;;;4.10;99.90;;;;;;5068513;28;20473;-38
2023/01/18 11:04:07;;;;;;;4.68;3.00;;;4.20;99.90;;;;;;5067895;28;20032;-37
2023/01/18 11:06:47;;;;;;;5.13;3.42;;;4.30;99.90;;;;;;5066675;28;20500;-41
2023/01/18 11:09:42;;;;;;;6.45;2.90;;;4.30;99.90;;;;;;5069811;28;20040;-40
2023/01/18 11:12:50;;;;;;;14.88;3.13;;;4.30;99.90;;;;;;5072756;28;20150;-41
2023/01/18 11:15:16;;;;;;;5.88;3.50;;;4.30;99.90;;;;;;5066985;28;20500;-37
2023/01/18 11:18:04;;;;;;;7.80;3.85;;;4.30;99.90;;;;;;5073380;28;20060;-38
2023/01/18 11:20:43;;;;;;;6.15;3.28;;;4.40;99.90;;;;;;5064884;28;20392;-42
2023/01/18 11:23:08;;;;;;;6.57;3.38;;;4.40;99.90;;;;;;5066507;28;20037;-42
2023/01/18 11:25:57;;;;;;;6.78;3.67;;;4.50;99.90;;;;;;5074127;28;20151;-38
2023/01/18 11:28:49;;;;;;;11.23;3.78;;;4.60;99.90;;;;;;5068888;28;20123;-39
2023/01/18 11:31:20;;;;;;;5.78;3.65;;;4.60;99.90;;;;;;5054978;28;20768;-40
2023/01/18 11:33:49;;;;;;;7.47;3.97;;;4.60;99.90;;;;;;5066451;28;20476;-42
2023/01/18 11:36:15;;;;;;;8.23;3.97;;;4.70;99.90;;;;;;5065401;28;20028;-40
2023/01/18 11:38:41;;;;;;;6.18;3.80;;;4.70;99.90;;;;;;5064779;28;20020;-40
2023/01/18 11:41:14;;;;;;;8.95;4.88;;;4.70;99.90;;;;;;5068173;28;20421;-41
2023/01/18 11:44:03;;;;;;;10.38;4.43;;;4.80;99.90;;;;;;5063309;28;20028;-39
2023/01/18 11:46:48;;;;;;;14.57;4.28;;;4.80;99.90;;;;;;5066858;28;20045;-40
2023/01/18 11:49:48;;;;;;;9.45;4.45;;;4.80;99.90;;;;;;5068784;28;20404;-41
2023/01/18 11:52:35;;;;;;;14.38;4.75;;;4.90;99.90;;;;;;5065571;28;20123;-40
2023/01/18 11:55:09;;;;;;;16.02;4.50;;;4.80;99.90;;;;;;5066340;28;20509;-40
2023/01/18 11:57:35;;;;;;;7.50;4.18;;;4.80;99.90;;;;;;5067547;28;20025;-38
2023/01/18 12:00:02;;;;;;;9.75;3.55;;;4.80;99.90;;;;;;5066607;28;20016;-35
2023/01/18 12:02:54;;;;;;;7.15;4.20;;;4.90;99.90;;;;;;5066954;28;20055;-39
2023/01/18 12:05:44;;;;;;;8.10;3.92;;;4.90;99.90;;;;;;5066354;28;20063;-34
2023/01/18 12:08:22;;;;;;;18.90;4.40;;;4.90;99.90;;;;;;5060411;28;20369;-38
2023/01/18 12:10:50;;;;;;;;;;;4.90;99.90;;;;;;5075008;28;20418;-49
2023/01/18 12:13:15;;;;;;;10.57;3.63;;;5.00;99.90;;;;;;5071781;28;20050;-40
2023/01/18 12:16:18;;;;;;;9.77;3.53;;;5.00;99.90;;;;;;5066014;28;20531;-42
2023/01/18 12:18:47;;;;;;;8.20;3.70;;;5.10;99.90;;;;;;5065025;28;20384;-41
2023/01/18 12:21:15;;;;;;;8.85;3.75;;;5.00;99.90;;;;;;5065781;28;20039;-40
2023/01/18 12:23:50;;;;;;;9.50;2.97;;;4.90;99.90;;;;;;5065421;28;20037;-39
2023/01/18 12:26:45;;;;;;;4.70;3.63;;;4.90;99.90;;;;;;5068032;28;20039;-39
2023/01/18 12:29:35;;;;;;;7.22;3.40;;;4.90;99.90;;;;;;5066275;28;20028;-41
2023/01/18 12:32:24;;;;;;;4.70;2.85;;;5.00;99.90;;;;;;5072021;28;20150;-40
2023/01/18 12:35:08;;;;;;;5.75;2.40;;;5.10;99.90;;;;;;5060393;28;20429;-35
2023/01/18 12:37:59;;;;;;;4.63;2.22;;;5.20;99.90;;;;;;5071666;28;20024;-40
2023/01/18 12:41:12;;;;;;;5.65;2.15;;;5.30;99.90;;;;;;5067774;28;20017;-42
2023/01/18 12:43:55;;;;;;;4.43;2.25;;;5.40;99.90;;;;;;5023877;28;20556;-39
2023/01/18 12:46:58;;;;;;;4.75;2.05;;;5.50;99.90;;;;;;5031514;28;20037;-40
2023/01/18 12:49:28;;;;;;;4.72;2.38;;;5.40;99.90;;;;;;5021521;28;20488;-41
2023/01/18 12:52:15;;;;;;;4.93;1.85;;;5.50;99.90;;;;;;5065051;28;20031;-41
2023/01/18 12:54:44;;;;;;;10.20;2.23;;;5.60;99.90;;;;;;5065341;28;20063;-41
2023/01/18 12:57:12;;;;;;;7.00;2.63;;;5.70;99.90;;;;;;5070600;28;20592;-40
2023/01/18 12:59:44;;;;;;;0.90;0.60;;;5.80;99.90;;;;;;5072967;28;20476;-42
2023/01/18 13:02:22;;;;;;;1.55;1.45;;;5.80;99.90;;;;;;5071577;28;20035;-40
2023/01/18 13:04:55;;;;;;;2.55;1.10;;;6.00;99.90;;;;;;5052403;28;20127;-40
2023/01/18 13:07:27;;;;;;;4.15;1.30;;;6.00;99.90;;;;;;5058871;28;20099;-40
2023/01/18 13:09:54;;;;;;;12.02;1.48;;;6.10;99.90;;;;;;5072434;28;20028;-40
2023/01/18 13:12:20;;;;;;;5.97;0.85;;;6.20;99.90;;;;;;5066143;28;20025;-39
2023/01/18 13:15:26;;;;;;;2.33;0.90;;;6.30;99.90;;;;;;5072589;28;20441;-40
2023/01/18 13:17:58;;;;;;;2.22;1.25;;;6.40;99.90;;;;;;5058063;28;20024;-40
2023/01/18 13:20:46;;;;;;;7.75;3.50;;;6.40;99.90;;;;;;5071658;28;20020;-43
2023/01/18 13:23:20;;;;;;;3.30;1.55;;;6.30;99.90;;;;;;5072610;28;20020;-41
2023/01/18 13:25:52;;;;;;;2.45;1.48;;;6.10;99.90;;;;;;5073184;28;20028;-41
2023/01/18 13:28:22;;;;;;;4.80;1.45;;;5.90;99.90;;;;;;5071575;28;20035;-39
2023/01/18 13:31:03;;;;;;;5.28;1.60;;;5.80;99.90;;;;;;5069950;28;20468;-42
2023/01/18 13:33:33;;;;;;;4.88;1.77;;;5.70;99.90;;;;;;5071345;28;20544;-42
2023/01/18 13:36:06;;;;;;;2.80;1.10;;;5.70;99.90;;;;;;5073091;28;20023;-40
2023/01/18 13:38:38;;;;;;;4.03;1.50;;;5.60;99.90;;;;;;5072032;28;20115;-43
2023/01/18 13:41:10;;;;;;;4.15;1.33;;;5.60;99.90;;;;;;5070057;28;20058;-44
2023/01/18 13:43:35;;;;;;;21.85;12.77;;;5.60;99.90;;;;;;5069907;28;20028;-43
2023/01/18 13:46:07;;;;;;;1.98;1.83;;;5.50;99.90;;;;;;5070957;28;20032;-41
2023/01/18 13:48:54;;;;;;;6.93;1.95;;;5.50;99.90;;;;;;5072552;28;20055;-44
2023/01/18 13:51:38;;;;;;;4.32;1.25;;;5.50;99.90;;;;;;5070167;28;20111;-42
2023/01/18 13:54:09;;;;;;;2.05;1.20;;;5.50;99.90;;;;;;5071714;28;20040;-44